Time;durP1;ratioP1;P1;durP2;ratioP2;P2;SDS_P1;SDS_P2;PMS_P1;PMS_P2;Temp;Humidity;BMP_temperature;BMP_pressure;BME280_temperature;BME280_humidity;BME280_pressure;Samples;Min_cycle;Max_cycle;Signal;HPM_P1;HPM_P2
2023/06/12 00:02:17;;;;;;;8.93;4.10;;;19.60;73.30;;;;;;5053776;28;20040;-70
2023/06/12 00:04:44;;;;;;;5.90;3.90;;;19.60;73.60;;;;;;5046867;28;20089;-70
2023/06/12 00:07:13;;;;;;;6.30;3.70;;;19.50;74.00;;;;;;5049849;28;20184;-70
2023/06/12 00:09:40;;;;;;;8.90;4.78;;;19.50;74.30;;;;;;5042009;28;22095;-70
2023/06/12 00:12:06;;;;;;;11.68;4.55;;;19.40;75.20;;;;;;5045872;28;20056;-70
2023/06/12 00:14:32;;;;;;;8.38;4.22;;;19.30;75.80;;;;;;5028494;28;20048;-70
2023/06/12 00:16:58;;;;;;;7.55;4.38;;;19.20;76.40;;;;;;5082310;28;20060;-70
2023/06/12 00:19:27;;;;;;;8.05;4.10;;;19.10;76.40;;;;;;5063676;28;20044;-70
2023/06/12 00:21:53;;;;;;;8.50;3.90;;;19.10;76.50;;;;;;5047961;28;20093;-70
2023/06/12 00:24:19;;;;;;;9.18;4.18;;;19.10;77.20;;;;;;5042574;28;20032;-70
2023/06/12 00:26:45;;;;;;;9.50;4.18;;;19.10;77.80;;;;;;5032293;28;20039;-70
2023/06/12 00:29:10;;;;;;;5.43;3.90;;;19.00;77.70;;;;;;5060969;28;20048;-70
2023/06/12 00:31:36;;;;;;;9.02;4.25;;;19.00;78.10;;;;;;5061922;28;20151;-70
2023/06/12 00:34:02;;;;;;;11.30;4.38;;;19.00;78.40;;;;;;5049160;28;20489;-70
2023/06/12 00:36:28;;;;;;;6.90;3.42;;;18.90;79.10;;;;;;5049575;28;20404;-70
2023/06/12 00:38:54;;;;;;;8.88;3.78;;;18.90;79.40;;;;;;5063580;28;20040;-70
2023/06/12 00:41:19;;;;;;;9.10;3.90;;;18.80;80.20;;;;;;5058497;28;20108;-70
2023/06/12 00:43:45;;;;;;;9.88;4.00;;;18.70;80.60;;;;;;5045617;28;20040;-69
2023/06/12 00:46:17;;;;;;;9.77;4.18;;;18.70;81.00;;;;;;5038859;28;20044;-70
2023/06/12 00:48:42;;;;;;;7.13;3.90;;;18.60;81.60;;;;;;5057444;28;20511;-70
2023/06/12 00:51:08;;;;;;;7.45;3.80;;;18.60;81.70;;;;;;5025063;28;20047;-70
2023/06/12 00:53:37;;;;;;;7.38;3.53;;;18.50;82.20;;;;;;5058033;28;20139;-69
2023/06/12 00:56:03;;;;;;;7.00;3.90;;;18.50;82.90;;;;;;5060206;28;20126;-70
2023/06/12 00:58:33;;;;;;;8.57;3.90;;;18.40;83.20;;;;;;5039589;28;20377;-71
2023/06/12 01:00:58;;;;;;;7.65;3.60;;;18.40;84.00;;;;;;5063359;28;20393;-70
2023/06/12 01:03:24;;;;;;;7.45;3.60;;;18.40;84.30;;;;;;5044262;28;20054;-69
2023/06/12 01:05:51;;;;;;;6.65;3.83;;;18.30;84.50;;;;;;5040551;28;20039;-69
2023/06/12 01:08:29;;;;;;;8.77;3.80;;;18.30;84.70;;;;;;5061103;28;21498;-69
2023/06/12 01:11:14;;;;;;;6.10;3.58;;;18.20;85.50;;;;;;5062988;28;20039;-69
2023/06/12 01:13:40;;;;;;;5.10;3.40;;;18.20;86.20;;;;;;5044353;28;20686;-69
2023/06/12 01:16:09;;;;;;;6.78;3.33;;;18.10;87.00;;;;;;5058105;28;20504;-70
2023/06/12 01:18:35;;;;;;;5.88;3.10;;;18.00;87.00;;;;;;5033027;28;20090;-70
2023/06/12 01:21:07;;;;;;;7.15;3.70;;;18.00;87.10;;;;;;5038221;28;20083;-70
2023/06/12 01:23:39;;;;;;;8.18;3.60;;;18.00;87.20;;;;;;5041558;28;20110;-70
2023/06/12 01:26:43;;;;;;;6.72;3.40;;;18.10;86.90;;;;;;5024923;28;20047;-69
2023/06/12 01:29:36;;;;;;;6.25;3.88;;;18.10;87.00;;;;;;5035495;28;20890;-69
2023/06/12 01:32:15;;;;;;;7.13;3.47;;;18.10;87.30;;;;;;5039016;28;20076;-70
2023/06/12 01:34:51;;;;;;;7.85;3.25;;;18.10;87.50;;;;;;5040784;28;20044;-70
2023/06/12 01:37:26;;;;;;;8.15;3.10;;;18.10;88.00;;;;;;5017669;28;20471;-70
2023/06/12 01:40:05;;;;;;;6.35;3.63;;;18.10;88.70;;;;;;5044605;28;20102;-70
2023/06/12 01:42:31;;;;;;;4.78;3.65;;;18.00;88.70;;;;;;5042373;28;20099;-70
2023/06/12 01:44:57;;;;;;;5.75;3.65;;;18.00;89.00;;;;;;5040111;28;20040;-70
2023/06/12 01:47:23;;;;;;;7.80;3.53;;;17.90;89.10;;;;;;5024908;28;20039;-70
2023/06/12 01:49:50;;;;;;;5.75;3.08;;;17.90;89.40;;;;;;5042860;28;20044;-70
2023/06/12 01:52:16;;;;;;;7.93;3.13;;;17.90;89.40;;;;;;5041714;28;20057;-70
2023/06/12 01:54:45;;;;;;;6.88;3.40;;;17.90;89.40;;;;;;5016765;28;20572;-70
2023/06/12 01:57:11;;;;;;;7.45;3.83;;;17.90;89.50;;;;;;5030879;28;20074;-69
2023/06/12 01:59:37;;;;;;;8.02;3.50;;;18.00;89.90;;;;;;5042841;28;20048;-69
2023/06/12 02:02:03;;;;;;;8.32;3.40;;;18.00;90.00;;;;;;5028853;28;20559;-70
2023/06/12 02:04:32;;;;;;;7.55;3.45;;;18.00;90.20;;;;;;5045919;28;20047;-70
2023/06/12 02:06:58;;;;;;;6.97;3.42;;;17.90;90.30;;;;;;5048869;28;20132;-70
2023/06/12 02:09:24;;;;;;;6.32;3.08;;;17.90;90.40;;;;;;5024039;28;20055;-69
2023/06/12 02:11:50;;;;;;;6.53;3.78;;;17.90;90.50;;;;;;5044817;28;20070;-70
2023/06/12 02:14:15;;;;;;;9.20;3.35;;;17.80;90.70;;;;;;5024109;28;20053;-70
2023/06/12 02:16:47;;;;;;;6.57;3.42;;;17.80;91.00;;;;;;5040975;28;20488;-70
2023/06/12 02:19:13;;;;;;;8.45;3.80;;;17.70;91.40;;;;;;5014756;28;20036;-70
2023/06/12 02:21:39;;;;;;;6.70;4.00;;;17.50;91.90;;;;;;5079319;28;20051;-70
2023/06/12 02:24:08;;;;;;;4.75;3.17;;;17.40;92.70;;;;;;5042776;28;20049;-70
2023/06/12 02:26:35;;;;;;;7.15;3.85;;;17.20;93.00;;;;;;5048673;28;20040;-70
2023/06/12 02:29:11;;;;;;;5.05;3.15;;;17.10;93.60;;;;;;5081612;28;20132;-70
2023/06/12 02:31:37;;;;;;;7.53;3.80;;;17.00;94.10;;;;;;5068937;28;20400;-70
2023/06/12 02:34:04;;;;;;;8.65;4.10;;;17.00;94.60;;;;;;5057716;28;20105;-71
2023/06/12 02:36:30;;;;;;;6.65;3.72;;;17.00;95.00;;;;;;5044274;28;20407;-71
2023/06/12 02:38:56;;;;;;;6.72;3.80;;;17.00;95.10;;;;;;5066215;28;20032;-71
2023/06/12 02:41:22;;;;;;;10.82;4.32;;;16.90;95.10;;;;;;5049620;28;20039;-71
2023/06/12 02:43:48;;;;;;;9.40;4.00;;;16.90;95.50;;;;;;5041511;28;20103;-71
2023/06/12 02:46:14;;;;;;;8.93;4.22;;;16.80;96.00;;;;;;5050106;28;20082;-71
2023/06/12 02:48:40;;;;;;;8.02;3.85;;;16.70;96.50;;;;;;5060508;28;20044;-71
2023/06/12 02:51:06;;;;;;;8.82;4.20;;;16.60;96.90;;;;;;5059982;28;20408;-71
2023/06/12 02:53:31;;;;;;;10.55;3.97;;;16.60;97.20;;;;;;5044265;28;20249;-71
2023/06/12 02:55:57;;;;;;;10.32;4.35;;;16.50;97.40;;;;;;5044631;28;20037;-71
2023/06/12 02:58:23;;;;;;;7.88;4.13;;;16.50;97.70;;;;;;5049769;28;20404;-71
2023/06/12 03:00:52;;;;;;;7.40;4.20;;;16.50;98.30;;;;;;5065696;28;20448;-71
2023/06/12 03:03:20;;;;;;;9.25;3.90;;;16.50;98.60;;;;;;5051460;28;20122;-70
2023/06/12 03:05:47;;;;;;;10.43;3.75;;;16.40;98.70;;;;;;5061589;28;20071;-71
2023/06/12 03:08:16;;;;;;;7.72;3.60;;;16.40;98.70;;;;;;5048961;28;20056;-70
2023/06/12 03:10:45;;;;;;;10.38;3.60;;;16.40;98.60;;;;;;5047910;28;20043;-71
2023/06/12 03:13:14;;;;;;;4.63;3.45;;;16.40;98.60;;;;;;5074952;28;20064;-71
2023/06/12 03:15:40;;;;;;;5.70;3.70;;;16.50;98.70;;;;;;5063641;28;20048;-71
2023/06/12 03:18:06;;;;;;;8.13;3.80;;;16.50;98.60;;;;;;5061033;28;20055;-71
2023/06/12 03:20:33;;;;;;;6.97;3.78;;;16.50;98.70;;;;;;5068234;28;20048;-71
2023/06/12 03:22:59;;;;;;;9.70;3.67;;;16.50;98.90;;;;;;5063945;28;20123;-71
2023/06/12 03:25:25;;;;;;;8.02;3.65;;;16.50;99.10;;;;;;5066251;28;20487;-71
2023/06/12 03:27:51;;;;;;;7.65;3.95;;;16.40;99.20;;;;;;5065957;28;20042;-71
2023/06/12 03:30:17;;;;;;;8.07;3.78;;;16.40;99.20;;;;;;5078459;28;20442;-71
2023/06/12 03:32:42;;;;;;;5.95;3.88;;;16.40;99.40;;;;;;5078376;28;20063;-71
2023/06/12 03:35:08;;;;;;;7.93;3.70;;;16.40;99.20;;;;;;5075692;28;20052;-71
2023/06/12 03:37:34;;;;;;;7.47;4.18;;;16.40;99.40;;;;;;5058821;28;20045;-71
2023/06/12 03:40:00;;;;;;;8.43;4.07;;;16.40;99.90;;;;;;5067429;28;20127;-71
2023/06/12 03:42:26;;;;;;;5.72;3.72;;;16.40;99.60;;;;;;5084056;28;20054;-71
2023/06/12 03:44:52;;;;;;;6.50;3.60;;;16.40;99.60;;;;;;5077861;28;20031;-71
2023/06/12 03:47:18;;;;;;;5.78;3.60;;;16.30;99.70;;;;;;5065658;28;20036;-71
2023/06/12 03:49:46;;;;;;;7.57;4.32;;;16.30;99.90;;;;;;5078083;28;20040;-71
2023/06/12 03:52:15;;;;;;;6.57;3.30;;;16.20;99.90;;;;;;5067063;28;20087;-71
2023/06/12 03:54:40;;;;;;;8.27;4.00;;;16.20;99.90;;;;;;5041168;28;20040;-71
2023/06/12 03:57:06;;;;;;;7.75;4.05;;;16.20;99.90;;;;;;5061741;28;20060;-71
2023/06/12 03:59:33;;;;;;;7.60;4.07;;;16.10;99.90;;;;;;5040058;28;20119;-71
2023/06/12 04:01:58;;;;;;;8.73;4.15;;;16.00;99.90;;;;;;5076980;28;20052;-71
2023/06/12 04:04:25;;;;;;;7.68;4.55;;;16.00;99.90;;;;;;5032782;28;20053;-71
2023/06/12 04:06:53;;;;;;;8.75;4.25;;;16.00;99.90;;;;;;5031563;28;20101;-71
2023/06/12 04:09:20;;;;;;;9.27;4.18;;;16.00;99.90;;;;;;5032837;28;20522;-71
2023/06/12 04:11:46;;;;;;;6.57;4.00;;;16.00;99.90;;;;;;5057055;28;20387;-71
2023/06/12 04:14:12;;;;;;;8.55;4.38;;;16.00;99.90;;;;;;5052908;28;20059;-71
2023/06/12 04:16:38;;;;;;;8.45;4.05;;;15.90;99.90;;;;;;5032998;28;20060;-71
2023/06/12 04:19:05;;;;;;;7.53;4.45;;;16.00;99.90;;;;;;5002270;28;20044;-71
2023/06/12 04:21:32;;;;;;;8.15;4.60;;;16.00;99.90;;;;;;5040402;28;20064;-71
2023/06/12 04:24:00;;;;;;;5.63;4.13;;;16.00;99.90;;;;;;5041112;28;20408;-71
2023/06/12 04:26:27;;;;;;;6.47;4.10;;;16.10;99.90;;;;;;5031617;28;20507;-71
2023/06/12 04:28:57;;;;;;;7.25;3.65;;;16.10;99.90;;;;;;5043205;28;20041;-71
2023/06/12 04:31:29;;;;;;;8.10;4.38;;;16.10;99.90;;;;;;5041397;28;20056;-71
2023/06/12 04:33:55;;;;;;;10.13;4.60;;;16.20;99.90;;;;;;5026667;28;20044;-71
2023/06/12 04:36:22;;;;;;;7.47;4.35;;;16.20;99.90;;;;;;5046464;28;20496;-71
2023/06/12 04:38:52;;;;;;;7.40;4.30;;;16.20;99.90;;;;;;5045485;28;20048;-71
2023/06/12 04:41:24;;;;;;;9.75;5.13;;;16.20;99.90;;;;;;5043181;28;20386;-71
2023/06/12 04:43:58;;;;;;;8.50;4.25;;;16.30;99.90;;;;;;5044710;28;20056;-71
2023/06/12 04:46:26;;;;;;;8.32;4.40;;;16.30;99.90;;;;;;5034603;28;20048;-71
2023/06/12 04:48:52;;;;;;;6.50;4.35;;;16.30;99.90;;;;;;5009298;28;20797;-71
2023/06/12 04:51:18;;;;;;;12.25;5.25;;;16.30;99.90;;;;;;5029954;28;20053;-71
2023/06/12 04:53:47;;;;;;;7.35;4.55;;;16.40;99.90;;;;;;5016775;28;20091;-71
2023/06/12 04:56:20;;;;;;;7.40;4.73;;;16.50;99.90;;;;;;5016931;28;20048;-71
2023/06/12 04:58:46;;;;;;;8.40;4.43;;;16.50;99.90;;;;;;5035009;28;20598;-71
2023/06/12 05:01:14;;;;;;;7.20;4.55;;;16.60;99.90;;;;;;5050335;28;20076;-70
2023/06/12 05:03:41;;;;;;;8.15;4.88;;;16.60;99.90;;;;;;5037184;28;20049;-71
2023/06/12 05:06:07;;;;;;;7.95;4.60;;;16.70;99.90;;;;;;5013109;28;20048;-71
2023/06/12 05:08:34;;;;;;;9.93;4.35;;;16.80;99.90;;;;;;5056237;28;20181;-71
2023/06/12 05:11:00;;;;;;;6.55;4.47;;;16.70;99.90;;;;;;5019562;28;20055;-72
2023/06/12 05:13:26;;;;;;;8.77;4.45;;;16.80;99.90;;;;;;5023064;28;20044;-71
2023/06/12 05:15:52;;;;;;;9.13;4.88;;;16.80;99.90;;;;;;5025492;28;20441;-71
2023/06/12 05:18:18;;;;;;;8.40;4.68;;;16.90;99.90;;;;;;5042658;28;20051;-70
2023/06/12 05:20:46;;;;;;;7.47;5.00;;;16.90;99.90;;;;;;5012638;28;20109;-71
2023/06/12 05:23:12;;;;;;;8.00;5.03;;;16.90;99.90;;;;;;5063450;28;21569;-71
2023/06/12 05:25:38;;;;;;;7.72;4.85;;;17.00;99.90;;;;;;5024764;28;20131;-71
2023/06/12 05:28:03;;;;;;;7.53;4.60;;;17.00;99.90;;;;;;5045488;28;20069;-71
2023/06/12 05:30:29;;;;;;;8.80;4.68;;;17.10;99.90;;;;;;5045044;28;20044;-71
2023/06/12 05:32:55;;;;;;;7.57;4.65;;;17.10;99.90;;;;;;5061683;28;20040;-71
2023/06/12 05:35:21;;;;;;;10.25;5.10;;;17.20;99.90;;;;;;5053730;28;20047;-71
2023/06/12 05:37:47;;;;;;;9.18;5.28;;;17.30;99.90;;;;;;5046565;28;20456;-71
2023/06/12 05:40:13;;;;;;;9.35;4.95;;;17.30;99.90;;;;;;5043157;28;20067;-71
2023/06/12 05:42:39;;;;;;;8.98;4.75;;;17.40;99.90;;;;;;5029346;28;20032;-71
2023/06/12 05:45:08;;;;;;;9.77;4.93;;;17.50;99.90;;;;;;5045904;28;20036;-71
2023/06/12 05:47:34;;;;;;;6.03;4.75;;;17.50;99.90;;;;;;5029159;28;20036;-71
2023/06/12 05:50:00;;;;;;;9.27;4.80;;;17.60;99.90;;;;;;5045925;28;20365;-71
2023/06/12 05:52:26;;;;;;;9.20;4.63;;;17.70;99.90;;;;;;5062644;28;20602;-71
2023/06/12 05:54:52;;;;;;;12.02;5.15;;;17.80;99.90;;;;;;5047092;28;20198;-71
2023/06/12 05:57:20;;;;;;;8.60;4.88;;;17.90;99.90;;;;;;5060678;28;20071;-71
2023/06/12 05:59:52;;;;;;;9.98;5.10;;;17.90;99.90;;;;;;5048459;28;20040;-72
2023/06/12 06:02:27;;;;;;;9.43;5.40;;;18.00;99.90;;;;;;5043684;28;20055;-72
2023/06/12 06:04:54;;;;;;;8.95;4.93;;;18.10;99.90;;;;;;5046353;28;20585;-71
2023/06/12 06:07:20;;;;;;;9.10;5.35;;;18.20;99.90;;;;;;5036578;28;20369;-72
2023/06/12 06:09:46;;;;;;;8.93;4.72;;;18.30;99.90;;;;;;5047539;28;20394;-71
2023/06/12 06:12:15;;;;;;;8.32;4.53;;;18.30;99.90;;;;;;5050270;28;20043;-70
2023/06/12 06:14:41;;;;;;;7.97;5.05;;;18.40;99.90;;;;;;5045555;28;20040;-72
2023/06/12 06:17:09;;;;;;;10.05;5.50;;;18.50;99.90;;;;;;5048378;28;20063;-71
2023/06/12 06:19:35;;;;;;;9.27;5.32;;;18.50;99.90;;;;;;5048018;28;20044;-71
2023/06/12 06:22:04;;;;;;;9.85;5.05;;;18.60;99.90;;;;;;5044125;28;20222;-71
2023/06/12 06:24:30;;;;;;;9.07;5.20;;;18.70;99.90;;;;;;5064018;28;20044;-71
2023/06/12 06:26:56;;;;;;;6.70;5.50;;;18.80;99.90;;;;;;5061317;28;20028;-72
2023/06/12 06:29:21;;;;;;;8.13;5.05;;;18.90;99.90;;;;;;5014259;28;20413;-72
2023/06/12 06:31:50;;;;;;;9.05;5.18;;;19.00;99.90;;;;;;5046374;28;20036;-71
2023/06/12 06:34:18;;;;;;;8.65;4.93;;;19.10;99.90;;;;;;5067696;28;20089;-71
2023/06/12 06:36:44;;;;;;;10.00;5.45;;;19.20;99.90;;;;;;5047426;28;20378;-72
2023/06/12 06:39:10;;;;;;;8.63;5.03;;;19.30;99.90;;;;;;5048495;28;20055;-72
2023/06/12 06:41:37;;;;;;;7.80;4.32;;;19.40;99.90;;;;;;5065462;28;20036;-72
2023/06/12 06:44:03;;;;;;;10.45;5.30;;;19.50;99.90;;;;;;5049422;28;20041;-72
2023/06/12 06:46:29;;;;;;;6.15;4.65;;;19.60;99.90;;;;;;5063116;28;20421;-71
2023/06/12 06:48:58;;;;;;;8.00;5.03;;;19.70;99.90;;;;;;5050177;28;20428;-72
2023/06/12 06:51:24;;;;;;;7.65;4.80;;;19.80;99.90;;;;;;5050117;28;20061;-72
2023/06/12 06:53:50;;;;;;;8.25;4.90;;;19.80;99.90;;;;;;5064907;28;20051;-72
2023/06/12 06:56:16;;;;;;;21.23;9.10;;;20.00;99.90;;;;;;5016236;28;20044;-72
2023/06/12 06:58:42;;;;;;;11.35;5.80;;;20.00;99.90;;;;;;5061965;28;20043;-72
2023/06/12 07:01:08;;;;;;;7.68;4.95;;;20.10;99.90;;;;;;5063743;28;20425;-72
2023/06/12 07:03:34;;;;;;;7.45;4.72;;;20.30;99.90;;;;;;5045795;28;20076;-72
2023/06/12 07:06:00;;;;;;;8.90;5.32;;;20.40;99.70;;;;;;5064732;28;20048;-72
2023/06/12 07:08:26;;;;;;;10.77;5.07;;;20.50;99.10;;;;;;5052371;28;20351;-72
2023/06/12 07:10:52;;;;;;;7.72;5.10;;;20.60;99.70;;;;;;5075092;28;20690;-72
2023/06/12 07:13:18;;;;;;;7.38;4.70;;;20.80;99.70;;;;;;5033373;28;20044;-72
2023/06/12 07:15:44;;;;;;;9.77;5.22;;;20.90;99.20;;;;;;5062407;28;20120;-72
2023/06/12 07:18:11;;;;;;;6.68;4.80;;;21.00;99.20;;;;;;5064034;28;20044;-72
2023/06/12 07:20:42;;;;;;;8.85;5.00;;;21.10;98.80;;;;;;5045104;28;20072;-70
2023/06/12 07:23:08;;;;;;;6.43;4.53;;;21.20;98.10;;;;;;5065468;28;20036;-71
2023/06/12 07:25:34;;;;;;;9.98;4.97;;;21.30;98.20;;;;;;5046179;28;20043;-70
2023/06/12 07:28:00;;;;;;;7.10;4.95;;;21.50;97.80;;;;;;5067957;28;20518;-71
2023/06/12 07:30:26;;;;;;;7.63;4.85;;;21.70;97.80;;;;;;5055598;28;20385;-70
2023/06/12 07:32:52;;;;;;;7.20;5.20;;;21.80;97.50;;;;;;5048499;28;20036;-70
2023/06/12 07:35:18;;;;;;;8.10;5.10;;;21.90;97.20;;;;;;5062190;28;20109;-70
2023/06/12 07:37:45;;;;;;;7.25;4.90;;;22.10;96.50;;;;;;5062393;28;20044;-71
2023/06/12 07:40:12;;;;;;;10.15;5.30;;;22.20;95.50;;;;;;5045610;28;20042;-70
2023/06/12 07:42:42;;;;;;;7.53;4.97;;;22.30;94.90;;;;;;5033604;28;20056;-71
2023/06/12 07:45:08;;;;;;;7.07;4.97;;;22.40;95.20;;;;;;5062457;28;20048;-71
2023/06/12 07:47:34;;;;;;;7.13;5.15;;;22.50;95.10;;;;;;5050918;28;20055;-71
2023/06/12 07:50:06;;;;;;;7.15;5.00;;;22.60;94.60;;;;;;5046968;28;20043;-71
2023/06/12 07:52:32;;;;;;;9.75;5.32;;;22.70;94.00;;;;;;5046599;28;20051;-71
2023/06/12 07:54:58;;;;;;;28.48;20.02;;;22.80;93.80;;;;;;5048105;28;20036;-71
2023/06/12 07:57:23;;;;;;;13.88;6.82;;;22.90;93.70;;;;;;5033892;28;20040;-71
2023/06/12 07:59:50;;;;;;;11.20;7.93;;;22.90;93.30;;;;;;5043145;28;20085;-70
2023/06/12 08:02:16;;;;;;;10.55;6.45;;;23.00;92.70;;;;;;5048207;28;20042;-70
2023/06/12 08:04:42;;;;;;;9.70;5.82;;;23.00;92.70;;;;;;5064935;28;20093;-70
2023/06/12 08:07:13;;;;;;;8.50;5.97;;;23.20;92.60;;;;;;5044976;28;20036;-70
2023/06/12 08:09:42;;;;;;;8.05;4.53;;;23.30;91.90;;;;;;5061080;28;20047;-70
2023/06/12 08:12:10;;;;;;;9.73;5.65;;;23.40;92.30;;;;;;5048491;28;20043;-71
2023/06/12 08:14:37;;;;;;;8.30;5.07;;;23.50;92.30;;;;;;5045837;28;20044;-71
2023/06/12 08:17:06;;;;;;;7.35;5.10;;;23.60;91.70;;;;;;5064832;28;20052;-70
2023/06/12 08:19:35;;;;;;;7.28;5.10;;;23.60;91.00;;;;;;5032687;28;20036;-70
2023/06/12 08:22:03;;;;;;;8.88;5.40;;;23.70;91.00;;;;;;5027720;28;20040;-70
2023/06/12 08:24:30;;;;;;;11.55;5.22;;;23.80;90.60;;;;;;5062593;28;20075;-71
2023/06/12 08:26:58;;;;;;;9.63;5.10;;;23.90;90.80;;;;;;5033739;28;20391;-70
2023/06/12 08:29:23;;;;;;;9.10;5.57;;;24.00;90.00;;;;;;5030603;28;20078;-71
2023/06/12 08:31:49;;;;;;;8.57;5.70;;;24.10;89.40;;;;;;5060684;28;20650;-71
2023/06/12 08:34:15;;;;;;;7.78;4.97;;;24.10;88.10;;;;;;5046986;28;20512;-71
2023/06/12 08:36:44;;;;;;;9.82;5.00;;;24.20;87.20;;;;;;5050485;28;20071;-76
2023/06/12 08:39:13;;;;;;;8.15;5.00;;;24.20;86.90;;;;;;5048320;28;20542;-75
2023/06/12 08:41:50;;;;;;;7.50;5.00;;;24.30;85.90;;;;;;5033854;28;20040;-75
2023/06/12 08:44:16;;;;;;;7.43;4.95;;;24.30;84.70;;;;;;5061234;28;20571;-75
2023/06/12 08:46:43;;;;;;;8.60;5.20;;;24.40;85.70;;;;;;5033016;28;21211;-75
2023/06/12 08:49:09;;;;;;;9.90;7.75;;;24.50;85.10;;;;;;5062077;28;20130;-75
2023/06/12 08:51:37;;;;;;;12.38;11.07;;;24.60;84.90;;;;;;5048496;28;20044;-75
2023/06/12 08:54:07;;;;;;;9.73;5.40;;;24.70;84.50;;;;;;5030044;28;20048;-75
2023/06/12 08:56:33;;;;;;;6.10;4.75;;;24.90;85.70;;;;;;5062298;28;20047;-75
2023/06/12 08:59:00;;;;;;;8.23;4.60;;;25.00;84.80;;;;;;5061149;28;20036;-75
2023/06/12 09:01:28;;;;;;;31.00;17.85;;;25.10;83.20;;;;;;5064145;28;20048;-76
2023/06/12 09:04:00;;;;;;;8.82;5.70;;;25.20;83.60;;;;;;5061360;28;20504;-75
2023/06/12 09:06:28;;;;;;;18.70;10.77;;;25.30;83.00;;;;;;5045154;28;20130;-75
2023/06/12 09:08:53;;;;;;;10.25;5.72;;;25.40;83.40;;;;;;5064219;28;20067;-74
2023/06/12 09:11:19;;;;;;;8.43;5.00;;;25.60;84.80;;;;;;5048117;28;20556;-74
2023/06/12 09:13:52;;;;;;;6.78;5.05;;;25.70;83.80;;;;;;5063346;28;20044;-74
2023/06/12 09:16:19;;;;;;;8.23;4.82;;;25.80;81.90;;;;;;5056404;28;20049;-74
2023/06/12 09:18:53;;;;;;;7.05;4.55;;;25.80;81.10;;;;;;5040959;28;20138;-76
2023/06/12 09:21:21;;;;;;;19.92;13.10;;;25.90;82.20;;;;;;5042861;28;20056;-75
2023/06/12 09:23:50;;;;;;;7.90;5.15;;;26.00;81.30;;;;;;5041059;28;20420;-74
2023/06/12 09:26:21;;;;;;;6.78;5.13;;;26.00;81.00;;;;;;5040877;28;20048;-74
2023/06/12 09:28:54;;;;;;;14.23;6.80;;;26.10;80.60;;;;;;5045138;28;20044;-75
2023/06/12 09:31:20;;;;;;;6.15;4.80;;;26.20;79.70;;;;;;5011101;28;20131;-74
2023/06/12 09:33:49;;;;;;;8.40;5.03;;;26.40;80.80;;;;;;5027381;28;20051;-75
2023/06/12 09:36:19;;;;;;;7.03;4.85;;;26.50;79.00;;;;;;5025392;28;20446;-70
2023/06/12 09:38:56;;;;;;;7.60;4.97;;;26.60;77.90;;;;;;5025858;28;20455;-70
2023/06/12 09:41:24;;;;;;;8.15;4.97;;;26.80;75.20;;;;;;5026749;28;20056;-70
2023/06/12 09:44:01;;;;;;;10.77;4.65;;;27.00;73.30;;;;;;5012268;28;20059;-70
2023/06/12 09:46:27;;;;;;;7.60;5.20;;;27.10;72.20;;;;;;5040193;28;20045;-70
2023/06/12 09:48:57;;;;;;;7.55;5.30;;;27.20;71.60;;;;;;5009708;28;20101;-71
2023/06/12 09:51:23;;;;;;;7.63;5.13;;;27.30;70.90;;;;;;5058427;28;20057;-70
2023/06/12 09:53:51;;;;;;;9.45;5.50;;;27.40;69.90;;;;;;5026311;28;20084;-70
2023/06/12 09:56:17;;;;;;;9.38;5.88;;;27.40;70.10;;;;;;5022890;28;20473;-70
2023/06/12 09:58:47;;;;;;;8.30;5.53;;;27.60;70.40;;;;;;5025935;28;20429;-71
2023/06/12 10:01:16;;;;;;;7.18;5.32;;;27.70;68.70;;;;;;5038909;28;20048;-70
2023/06/12 10:03:44;;;;;;;8.40;5.43;;;27.70;67.90;;;;;;5027324;28;20045;-70
2023/06/12 10:06:13;;;;;;;9.50;6.60;;;27.80;66.80;;;;;;5045571;28;20102;-71
2023/06/12 10:08:40;;;;;;;6.90;5.45;;;27.80;66.10;;;;;;5037905;28;20468;-70
2023/06/12 10:11:10;;;;;;;6.22;4.95;;;27.80;66.00;;;;;;5042573;28;20048;-71
2023/06/12 10:13:37;;;;;;;10.65;5.57;;;27.80;65.50;;;;;;5044032;28;20044;-70
2023/06/12 10:16:04;;;;;;;7.55;6.05;;;27.90;65.70;;;;;;5020144;28;20098;-70
2023/06/12 10:18:31;;;;;;;9.70;6.60;;;28.00;65.80;;;;;;5044111;28;20061;-71
2023/06/12 10:21:00;;;;;;;9.10;6.65;;;28.10;63.40;;;;;;5008590;28;20048;-70
2023/06/12 10:23:29;;;;;;;7.05;5.82;;;28.20;64.40;;;;;;5042512;28;20076;-71
2023/06/12 10:25:57;;;;;;;6.90;5.75;;;28.40;64.60;;;;;;5025620;28;20060;-71
2023/06/12 10:28:26;;;;;;;7.97;6.18;;;28.50;63.40;;;;;;4995199;28;20062;-71
2023/06/12 10:31:15;;;;;;;8.38;6.60;;;28.70;63.30;;;;;;4994761;28;20127;-71
2023/06/12 10:34:06;;;;;;;8.93;6.80;;;28.70;61.70;;;;;;5043299;28;20770;-71
2023/06/12 10:36:50;;;;;;;8.20;6.45;;;28.80;60.80;;;;;;5038554;28;20531;-71
2023/06/12 10:39:23;;;;;;;6.93;6.28;;;28.80;60.30;;;;;;5009262;28;20569;-71
2023/06/12 10:41:57;;;;;;;7.78;6.97;;;29.00;60.90;;;;;;5042006;28;20049;-70
2023/06/12 10:44:36;;;;;;;7.07;6.35;;;29.10;59.30;;;;;;5042043;28;20475;-71
2023/06/12 10:47:02;;;;;;;6.97;6.28;;;29.30;57.50;;;;;;5028915;28;20043;-71
2023/06/12 10:49:29;;;;;;;7.10;6.05;;;29.30;55.60;;;;;;5032454;28;20400;-71
2023/06/12 10:51:57;;;;;;;8.02;6.18;;;29.40;55.10;;;;;;5012348;28;20544;-70
2023/06/12 10:54:27;;;;;;;7.25;6.45;;;29.50;54.90;;;;;;5027701;28;20127;-70
2023/06/12 10:56:57;;;;;;;;;;;29.50;55.10;;;;;;5045933;28;20040;-71
2023/06/12 10:59:30;;;;;;;7.72;6.20;;;29.60;55.20;;;;;;5043430;28;19924;-71
2023/06/12 11:01:56;;;;;;;8.60;6.50;;;29.60;54.00;;;;;;5028238;28;20127;-71
2023/06/12 11:04:22;;;;;;;7.15;6.45;;;29.60;52.60;;;;;;5010676;28;20336;-71
2023/06/12 11:06:48;;;;;;;7.32;6.53;;;29.60;55.70;;;;;;5029116;28;20095;-71
2023/06/12 11:09:14;;;;;;;8.07;6.35;;;29.80;53.80;;;;;;5038264;28;20081;-71
2023/06/12 11:11:48;;;;;;;7.15;6.45;;;29.80;54.80;;;;;;5046912;28;20067;-70
2023/06/12 11:14:14;;;;;;;7.60;6.28;;;29.70;51.30;;;;;;5040629;28;20040;-71
2023/06/12 11:16:40;;;;;;;7.82;6.32;;;29.70;51.10;;;;;;5013570;28;20118;-71
2023/06/12 11:19:07;;;;;;;9.57;7.07;;;29.80;52.70;;;;;;5059092;28;20044;-71
2023/06/12 11:21:37;;;;;;;7.82;6.60;;;29.90;53.90;;;;;;5067516;28;20052;-71
2023/06/12 11:24:07;;;;;;;8.55;6.30;;;29.90;52.30;;;;;;5066939;28;20071;-71
2023/06/12 11:26:33;;;;;;;9.07;7.18;;;30.00;51.80;;;;;;5065579;28;20047;-71
2023/06/12 11:29:21;;;;;;;7.05;6.28;;;30.10;50.90;;;;;;5058238;28;20040;-71
2023/06/12 11:32:09;;;;;;;8.15;6.93;;;30.10;53.30;;;;;;5062868;28;20075;-70
2023/06/12 11:34:36;;;;;;;9.15;6.78;;;30.10;53.10;;;;;;5046229;28;20127;-70
2023/06/12 11:37:16;;;;;;;7.65;6.95;;;30.10;52.70;;;;;;5064537;28;20503;-71
2023/06/12 11:39:45;;;;;;;8.20;7.03;;;30.30;52.30;;;;;;5064151;28;20048;-70
2023/06/12 11:42:11;;;;;;;7.80;6.32;;;30.40;49.60;;;;;;5065799;28;20040;-71
2023/06/12 11:44:40;;;;;;;7.72;6.30;;;30.50;49.00;;;;;;5062436;28;20039;-70
2023/06/12 11:47:07;;;;;;;7.88;7.03;;;30.40;48.70;;;;;;5031820;28;20170;-71
2023/06/12 11:49:37;;;;;;;7.65;6.90;;;30.30;50.30;;;;;;5049030;28;20484;-71
2023/06/12 11:52:04;;;;;;;9.48;6.53;;;30.10;50.50;;;;;;5063999;28;20039;-71
2023/06/12 11:54:31;;;;;;;8.18;6.78;;;29.90;51.20;;;;;;5049234;28;20071;-71
2023/06/12 11:57:03;;;;;;;8.82;6.75;;;29.70;51.30;;;;;;5061007;28;20099;-70
2023/06/12 11:59:37;;;;;;;8.15;6.82;;;29.60;50.00;;;;;;5049203;28;20055;-70
2023/06/12 12:02:03;;;;;;;8.13;6.90;;;29.70;49.00;;;;;;5049412;28;20155;-71
2023/06/12 12:04:30;;;;;;;7.40;6.35;;;29.80;48.20;;;;;;5033768;28;20100;-71
2023/06/12 12:06:57;;;;;;;8.23;7.53;;;29.70;47.90;;;;;;5062921;28;20139;-71
2023/06/12 12:09:24;;;;;;;8.27;7.00;;;29.80;48.50;;;;;;5060175;28;20123;-71
2023/06/12 12:11:51;;;;;;;7.88;7.18;;;29.80;48.00;;;;;;5051798;28;20132;-71
2023/06/12 12:14:17;;;;;;;10.80;6.65;;;29.70;49.10;;;;;;5048365;28;20496;-70
2023/06/12 12:16:44;;;;;;;8.25;6.95;;;29.70;49.60;;;;;;5077443;28;20047;-71
2023/06/12 12:19:16;;;;;;;8.55;7.63;;;29.70;49.40;;;;;;5066113;28;20051;-71
2023/06/12 12:21:46;;;;;;;10.73;8.18;;;29.60;46.90;;;;;;5062928;28;20072;-71
2023/06/12 12:24:12;;;;;;;8.32;7.50;;;29.50;48.50;;;;;;5032353;28;20097;-71
2023/06/12 12:26:47;;;;;;;8.52;7.70;;;29.50;48.10;;;;;;5047851;28;20047;-71
2023/06/12 12:29:13;;;;;;;8.90;8.10;;;29.30;47.30;;;;;;5063624;28;20056;-71
2023/06/12 12:31:39;;;;;;;8.40;7.60;;;29.00;47.80;;;;;;5019661;28;20062;-71
2023/06/12 12:34:07;;;;;;;8.75;7.45;;;28.80;47.90;;;;;;5064733;28;20499;-71
2023/06/12 12:36:33;;;;;;;8.90;8.10;;;28.70;47.00;;;;;;5056392;28;20131;-71
2023/06/12 12:38:59;;;;;;;8.57;7.72;;;28.60;46.80;;;;;;5058068;28;20119;-70
2023/06/12 12:41:26;;;;;;;8.82;7.82;;;28.70;48.50;;;;;;5065506;28;20044;-71
2023/06/12 12:43:52;;;;;;;9.25;8.45;;;28.60;48.60;;;;;;5044903;28;20032;-71
2023/06/12 12:46:18;;;;;;;9.38;7.55;;;28.40;49.10;;;;;;5048158;28;20044;-71
2023/06/12 12:48:45;;;;;;;8.07;7.28;;;28.30;47.30;;;;;;5029676;28;20518;-71
2023/06/12 12:51:14;;;;;;;8.73;7.70;;;28.20;49.60;;;;;;5050158;28;20076;-71